• Join FlightAware (Why Join?)
  • Login
  • US Flag 
12:04AM EDT


 

Airport Tracker/Info


-or-


 

Live Flight TrackerFlight Track Log ✈ ASQ6116 ✈ 30-Apr-2012 ✈ CYWG - KDEN

Flight Track Log - Related Links

Times and Time Zones

All times are in EDT time to prevent confusion due to time zone crossing. See the ASQ6116 flight status page for this flight to view local times or setup timezone preferences in your user account.

Time Position Orientation Groundspeed Altitude Reporting Facility
EDT Latitude Longitude Course Direction KTS MPH feet Rate Location/Type
05:33PM 49.9167 -97.2833 270° West 170 196 2,700  Level Winnipeg Center
05:34PM 49.9167 -97.3500 213° Southwest 210 242 6,100 3,360 Climbing Winnipeg Center
05:35PM 49.8667 -97.4000 198° South 230 265 9,500 2,160 Climbing Winnipeg Center
05:36PM 49.8000 -97.4333 198° South 280 322 10,500 1,380 Climbing Winnipeg Center
05:37PM 49.7000 -97.4833 213° Southwest 340 391 12,300 1,920 Climbing Winnipeg Center
05:38PM 49.6167 -97.5667 207° Southwest 350 403 14,400 2,100 Climbing Winnipeg Center
05:39PM 49.5333 -97.6333 213° Southwest 350 403 16,600 2,160 Climbing Winnipeg Center
05:40PM 49.4500 -97.7167 203° Southwest 360 414 18,800 2,040 Climbing Winnipeg Center
05:41PM 49.3500 -97.7833 218° Southwest 360 414 20,700 1,920 Climbing Winnipeg Center
05:42PM 49.2667 -97.8833 213° Southwest 370 426 22,700 1,920 Climbing Winnipeg Center
05:43PM 49.1833 -97.9667 204° Southwest 370 426 24,600 1,920 Climbing Winnipeg Center
05:44PM 49.0833 -98.0333 213° Southwest 370 426 26,600 1,920 Climbing Winnipeg Center
05:45PM 49.0000 -98.1167 208° Southwest 360 414 28,500 1,860 Climbing Winnipeg Center
05:46PM 48.9167 -98.1833 213° Southwest 360 414 30,400 1,800 Climbing Winnipeg Center
05:47PM 48.8333 -98.2667 208° Southwest 360 414 32,200 1,740 Climbing Winnipeg Center
05:48PM 48.7500 -98.3333 213° Southwest 360 414 33,900 1,500 Climbing Winnipeg Center
05:49PM 48.6667 -98.4167 208° Southwest 350 403 35,300 1,020 Climbing Winnipeg Center
05:50PM 48.5833 -98.4833 214° Southwest 360 414 36,000 300 Climbing Winnipeg Center
05:51PM 48.4833 -98.5833 204° Southwest 380 437 36,000  Level Winnipeg Center
05:52PM 48.3833 -98.6500 219° Southwest 410 472 36,000  Level Winnipeg Center
05:53PM 48.3000 -98.7500 204° Southwest 410 472 36,000  Level Winnipeg Center
05:54PM 48.2000 -98.8167 210° Southwest 410 472 36,000  Level Winnipeg Center
05:55PM 48.0833 -98.9167 207° Southwest 410 472 36,000 -180 Level Winnipeg Center
06:03PM 47.3167 -99.5596 206° Southwest  Level FlightAware Approximate
06:04PM 47.2202 -99.6369 206° Southwest  Level FlightAware Approximate
06:05PM 47.1237 -99.7140 206° Southwest  Level FlightAware Approximate
06:06PM 47.0264 -99.7888 206° Southwest  Level FlightAware Approximate
06:07PM 46.9298 -99.8654 206° Southwest  Level FlightAware Approximate
06:08PM 46.8331 -99.9417 206° Southwest  Level FlightAware Approximate
06:09PM 46.7364 -100.0177 205° Southwest  Level FlightAware Approximate
06:10PM 46.6396 -100.0934 205° Southwest  Level FlightAware Approximate
06:11PM 46.5428 -100.1689 205° Southwest  Level FlightAware Approximate
06:12PM 46.4459 -100.2441 205° Southwest  Level FlightAware Approximate
06:13PM 46.3479 -100.3154 205° Southwest  Level FlightAware Approximate
06:14PM 46.2510 -100.3901 205° Southwest  Level FlightAware Approximate
06:15PM 46.1540 -100.4646 205° Southwest  Level FlightAware Approximate
06:16PM 46.0570 -100.5389 205° Southwest  Level FlightAware Approximate
06:17PM 45.9592 -100.6107 205° Southwest  Level FlightAware Approximate
06:18PM 45.8620 -100.6842 204° Southwest  Level FlightAware Approximate
06:19PM 45.7647 -100.7575 204° Southwest  Level FlightAware Approximate
06:20PM 45.6674 -100.8305 204° Southwest  Level FlightAware Approximate
06:21PM 45.5701 -100.9032 204° Southwest  Level FlightAware Approximate
06:22PM 45.4727 -100.9757 204° Southwest  Level FlightAware Approximate
06:23PM 45.3753 -101.0480 204° Southwest  Level FlightAware Approximate
06:24PM 45.2778 -101.1200 204° Southwest  Level FlightAware Approximate
06:25PM 45.1803 -101.1917 204° Southwest  Level FlightAware Approximate
06:26PM 45.0827 -101.2632 203° Southwest  Level FlightAware Approximate
06:27PM 44.9851 -101.3345 203° Southwest  Level FlightAware Approximate
06:28PM 44.8875 -101.4055 203° Southwest  Level FlightAware Approximate
06:29PM 44.7898 -101.4763 203° Southwest  Level FlightAware Approximate
06:30PM 44.6948 -101.5538 203° Southwest  Level FlightAware Approximate
06:31PM 44.5951 -101.6187 203° Southwest  Level FlightAware Approximate
06:32PM 44.4954 -101.6834 203° Southwest  Level FlightAware Approximate
06:33PM 44.3957 -101.7479 203° Southwest  Level FlightAware Approximate
06:34PM 44.2960 -101.8122 202° Southwest  Level FlightAware Approximate
06:35PM 44.1962 -101.8763 202° Southwest  Level FlightAware Approximate
06:36PM 44.0964 -101.9401 202° Southwest  Level FlightAware Approximate
06:37PM 43.9965 -102.0038 202° Southwest  Level FlightAware Approximate
06:38PM 43.8966 -102.0672 202° Southwest  Level FlightAware Approximate
06:39PM 43.7967 -102.1304 202° Southwest  Level FlightAware Approximate
06:40PM 43.6967 -102.1934 202° Southwest  Level FlightAware Approximate
06:41PM 43.5967 -102.2561 202° Southwest  Level FlightAware Approximate
06:42PM 43.4967 -102.3187 201° Southwest  Level FlightAware Approximate
06:43PM 43.3966 -102.3811 201° Southwest  Level FlightAware Approximate
06:44PM 43.2966 -102.4433 201° Southwest  Level FlightAware Approximate
06:45PM 43.1964 -102.5052 201° Southwest  Level FlightAware Approximate
06:46PM 43.0963 -102.5670 201° Southwest  Level FlightAware Approximate
06:47PM 42.9961 -102.6285 200° South  Level FlightAware Approximate
06:48PM 42.8958 -102.6899 200° South  Level FlightAware Approximate
06:49PM 42.7967 -102.7545 200° South  Level FlightAware Approximate
06:50PM 42.6976 -102.8189 200° South  Level FlightAware Approximate
06:51PM 42.6589 -102.9552 197° South  Level FlightAware Approximate
06:52PM 42.5594 -103.0184 197° South  Level FlightAware Approximate
06:53PM 42.4599 -103.0814 196° South  Level FlightAware Approximate
06:54PM 42.3604 -103.1442 196° South  Level FlightAware Approximate
06:55PM 42.2608 -103.2069 195° South  Level FlightAware Approximate
06:56PM 42.1611 -103.2693 194° South  Level FlightAware Approximate
06:57PM 42.0615 -103.3315 193° South  Level FlightAware Approximate
06:58PM 41.9618 -103.3936 192° South  Level FlightAware Approximate
06:59PM 41.8691 -103.4690 191° South  Level FlightAware Approximate
07:00PM 41.7601 -103.4872 191° South  Level FlightAware Approximate
07:01PM 41.6511 -103.5056 191° South  Level FlightAware Approximate
07:02PM 41.5526 -103.5706 190° South  Level FlightAware Approximate
07:03PM 41.4541 -103.6354 187° South  Level FlightAware Approximate
07:04PM 41.3555 -103.7000 184° South  Level FlightAware Approximate
07:05PM 41.2569 -103.7644 180° South  Level FlightAware Approximate
07:05PM 40.6836 -103.7650 210° Southwest 457 526 26,500  Level Denver Center
07:07PM 40.4167 -103.9667 211° Southwest 384 442 17,500 -2,880 Descending Denver TRACON
07:08PM 40.3333 -104.0333 248° West 326 375 16,500 -1,320 Descending Denver TRACON
07:11PM 40.2647 -104.2553 264° West 276 318 13,200 -1,020 Descending Denver Center
07:12PM 40.2561 -104.3564 265° West 281 323 13,100 -60 Descending Denver Center
07:13PM 40.2494 -104.4544 241° Southwest 281 323 13,100 -780 Level Denver Center
07:14PM 40.2114 -104.5428 221° Southwest 275 316 11,600 -1,620 Descending Denver Center
07:15PM 40.1561 -104.6067 207° Southwest 270 311 9,900 -1,560 Descending Denver Center
07:15PM 40.1167 -104.6333 207° Southwest 263 303 9,300 -1,080 Descending Denver TRACON
07:16PM 40.0667 -104.6667 191° South 242 278 8,300 -1,020 Descending Denver TRACON
07:17PM 40.0000 -104.6833 180° South 237 273 7,300 -1,080 Descending Denver TRACON
07:18PM 39.9500 -104.6833 180° South 202 232 6,400 -900 Descending Denver TRACON
07:19PM 39.9167 -104.6833 180° South 142 163 5,700 -720 Descending Denver TRACON